createdAt,value
2019-05-13T00:00:53.881Z,8.40
2019-05-13T00:04:58.577Z,8.30
2019-05-13T00:09:03.893Z,8.30
2019-05-13T00:13:08.538Z,8.20
2019-05-13T00:17:14.588Z,8.20
2019-05-13T00:21:19.314Z,8.10
2019-05-13T00:25:24.277Z,8.10
2019-05-13T00:29:28.865Z,8.00
2019-05-13T00:33:34.078Z,8.00
2019-05-13T00:37:38.764Z,7.90
2019-05-13T00:41:44.278Z,7.90
2019-05-13T00:45:48.922Z,7.90
2019-05-13T00:49:54.102Z,7.80
2019-05-13T00:53:58.888Z,7.80
2019-05-13T00:58:04.287Z,7.70
2019-05-13T01:02:09.056Z,7.70
2019-05-13T01:06:13.614Z,7.60
2019-05-13T01:10:19.566Z,7.60
2019-05-13T01:14:24.180Z,7.60
2019-05-13T01:18:28.753Z,7.50
2019-05-13T01:22:34.380Z,7.50
2019-05-13T01:26:39.024Z,7.40
2019-05-13T01:30:44.079Z,7.30
2019-05-13T01:34:48.681Z,7.30
2019-05-13T01:38:54.593Z,7.20
2019-05-13T01:42:59.152Z,7.20
2019-05-13T01:47:04.524Z,7.10
2019-05-13T01:51:09.411Z,7.10
2019-05-13T01:55:14.896Z,7.00
2019-05-13T01:59:19.517Z,7.00
2019-05-13T02:03:24.718Z,6.90
2019-05-13T02:07:29.456Z,6.90
2019-05-13T02:11:34.210Z,6.80
2019-05-13T02:15:38.789Z,6.80
2019-05-13T02:19:44.231Z,6.70
2019-05-13T02:23:48.943Z,6.60
2019-05-13T02:34:13.646Z,5.60
2019-05-13T02:38:45.661Z,5.40
2019-05-13T02:47:22.532Z,5.10
2019-05-13T02:52:44.368Z,5.00
2019-05-13T02:56:49.048Z,4.90
2019-05-13T03:00:54.209Z,4.80
2019-05-13T03:04:58.972Z,4.80
2019-05-13T03:09:05.789Z,4.80
2019-05-13T03:13:12.608Z,4.70
2019-05-13T03:17:25.002Z,4.70
2019-05-13T03:21:58.494Z,4.60
2019-05-13T03:28:46.637Z,4.50
2019-05-13T03:32:58.907Z,4.50
2019-05-13T03:36:58.745Z,4.50
2019-05-13T03:44:54.065Z,4.30
2019-05-13T03:49:02.559Z,4.40
2019-05-13T03:53:07.168Z,4.40
2019-05-13T04:00:28.465Z,4.30
2019-05-13T04:04:33.151Z,4.30
2019-05-13T04:08:37.692Z,4.30
2019-05-13T04:12:42.694Z,4.30
2019-05-13T04:16:47.472Z,4.30
2019-05-13T04:20:52.953Z,4.30
2019-05-13T04:31:45.574Z,4.50
2019-05-13T04:35:52.821Z,4.60
2019-05-13T04:39:56.820Z,4.70
2019-05-13T04:44:13.069Z,4.90
2019-05-13T04:52:44.841Z,7.20
2019-05-13T05:01:16.165Z,9.50
2019-05-13T05:10:16.019Z,11.00
2019-05-13T05:14:17.314Z,11.50
2019-05-13T05:19:18.018Z,11.70
2019-05-13T05:23:56.207Z,11.50
2019-05-13T05:28:56.289Z,11.00
2019-05-13T05:33:31.672Z,10.50
2019-05-13T05:38:12.375Z,10.40
2019-05-13T05:48:50.824Z,9.50
2019-05-13T05:53:15.958Z,9.20
2019-05-13T05:58:23.972Z,8.90
2019-05-13T06:02:28.804Z,8.70
2019-05-13T06:13:18.032Z,8.40
2019-05-13T06:17:22.604Z,8.30
2019-05-13T06:21:27.279Z,8.30
2019-05-13T06:25:33.738Z,8.30
2019-05-13T06:29:38.487Z,9.30
2019-05-13T06:33:43.150Z,11.20
2019-05-13T06:40:22.335Z,13.50
2019-05-13T06:44:26.920Z,14.60
2019-05-13T06:48:32.357Z,15.80
2019-05-13T06:52:37.279Z,16.80
2019-05-13T06:56:42.813Z,18.10
2019-05-13T07:00:47.556Z,18.20
2019-05-13T07:04:52.136Z,18.70
2019-05-13T07:08:56.720Z,19.30
2019-05-13T07:13:02.143Z,19.80
2019-05-13T07:17:06.916Z,20.00
2019-05-13T07:21:12.497Z,20.00
2019-05-13T07:25:17.472Z,20.10
2019-05-13T07:29:24.232Z,20.40
2019-05-13T07:33:28.323Z,20.30
2019-05-13T07:37:32.942Z,20.70
2019-05-13T07:41:39.604Z,20.70
2019-05-13T07:45:43.914Z,20.90
2019-05-13T07:49:48.473Z,20.90
2019-05-13T07:53:53.036Z,21.00
2019-05-13T07:57:57.541Z,21.00
2019-05-13T08:02:02.706Z,21.20
2019-05-13T08:06:07.351Z,21.10
2019-05-13T08:10:12.312Z,21.30
2019-05-13T08:14:16.910Z,21.20
2019-05-13T08:18:22.232Z,21.00
2019-05-13T08:22:26.968Z,21.00
2019-05-13T08:26:32.267Z,21.20
2019-05-13T08:30:37.007Z,21.20
2019-05-13T08:34:41.829Z,21.30
2019-05-13T08:38:46.520Z,21.10
2019-05-13T08:42:52.024Z,21.30
2019-05-13T08:46:58.853Z,21.30
2019-05-13T08:51:03.538Z,21.20
2019-05-13T08:55:08.459Z,21.10
2019-05-13T08:59:12.976Z,21.00
2019-05-13T09:03:17.928Z,20.30
2019-05-13T09:07:24.371Z,19.60
2019-05-13T09:11:31.367Z,18.80
2019-05-13T09:15:35.299Z,17.90
2019-05-13T09:19:41.446Z,17.40
2019-05-13T09:23:46.255Z,16.80
2019-05-13T09:27:51.320Z,16.40
2019-05-13T09:31:55.993Z,16.00
2019-05-13T09:36:02.180Z,15.70
2019-05-13T09:40:07.008Z,15.50
2019-05-13T09:44:12.495Z,15.30
2019-05-13T09:48:17.313Z,15.10
2019-05-13T09:52:22.673Z,15.10
2019-05-13T09:56:27.385Z,15.00
2019-05-13T10:00:32.369Z,14.90
2019-05-13T10:04:36.984Z,14.90
2019-05-13T10:08:41.977Z,14.70
2019-05-13T10:13:06.100Z,14.60
2019-05-13T10:16:52.904Z,14.50
2019-05-13T10:20:59.331Z,14.40
2019-05-13T10:25:04.544Z,14.40
2019-05-13T10:29:11.690Z,14.40
2019-05-13T10:33:15.516Z,14.40
2019-05-13T10:37:22.063Z,14.30
2019-05-13T10:41:26.705Z,14.30
2019-05-13T10:45:33.185Z,14.20
2019-05-13T10:49:37.451Z,14.20
2019-05-13T10:53:42.669Z,14.20
2019-05-13T10:57:47.431Z,14.20
2019-05-13T11:01:52.008Z,14.20
2019-05-13T11:05:56.563Z,14.20
2019-05-13T11:10:02.353Z,14.20
2019-05-13T11:14:11.195Z,14.30
2019-05-13T11:18:19.105Z,14.30
2019-05-13T11:22:22.309Z,14.30
2019-05-13T11:26:26.083Z,14.30
2019-05-13T11:30:31.936Z,14.40
2019-05-13T11:34:36.696Z,14.40
2019-05-13T11:38:43.374Z,14.50
2019-05-13T11:42:47.481Z,14.50
2019-05-13T11:46:53.077Z,14.50
2019-05-13T11:50:57.890Z,14.60
2019-05-13T11:55:03.004Z,14.60
2019-05-13T11:59:07.949Z,14.70
2019-05-13T12:03:12.515Z,14.80
2019-05-13T12:07:17.073Z,14.80
2019-05-13T12:11:22.418Z,14.90
2019-05-13T12:15:44.964Z,15.20
2019-05-13T12:19:33.384Z,15.50
2019-05-13T12:23:38.060Z,15.70
2019-05-13T12:27:42.607Z,15.80
2019-05-13T12:31:47.163Z,16.00
2019-05-13T12:35:52.910Z,16.10
2019-05-13T12:39:58.195Z,16.30
2019-05-13T12:44:02.757Z,16.50
2019-05-13T12:48:07.308Z,16.60
2019-05-13T12:52:13.086Z,16.60
2019-05-13T12:56:18.045Z,16.80
2019-05-13T13:00:23.625Z,16.80
2019-05-13T13:04:28.423Z,16.90
2019-05-13T13:08:43.016Z,17.10
2019-05-13T13:12:41.928Z,17.10
2019-05-13T13:16:45.436Z,17.20
2019-05-13T13:20:57.918Z,17.30
2019-05-13T13:24:57.587Z,17.40
2019-05-13T13:29:02.441Z,17.10
2019-05-13T13:33:07.025Z,17.00
2019-05-13T13:37:11.808Z,17.00
2019-05-13T13:41:22.353Z,16.90
2019-05-13T13:45:23.030Z,16.90
2019-05-13T13:49:27.606Z,16.90
2019-05-13T13:53:33.334Z,16.80
2019-05-13T13:57:38.170Z,16.80
2019-05-13T14:01:42.723Z,16.80
2019-05-13T14:05:47.250Z,16.80
2019-05-13T14:09:51.813Z,16.70
2019-05-13T14:13:56.360Z,16.70
2019-05-13T14:18:00.924Z,16.70
2019-05-13T14:22:05.501Z,16.60
2019-05-13T14:26:10.032Z,16.60
2019-05-13T14:30:15.090Z,16.60
2019-05-13T14:34:19.649Z,16.60
2019-05-13T14:38:24.261Z,16.50
2019-05-13T14:42:32.016Z,16.50
2019-05-13T14:46:46.410Z,16.60
2019-05-13T14:50:41.757Z,16.60
2019-05-13T14:54:46.507Z,16.70
2019-05-13T14:58:52.068Z,16.70
2019-05-13T15:02:56.856Z,16.60
2019-05-13T15:07:01.386Z,16.50
2019-05-13T15:11:06.255Z,16.50
2019-05-13T15:15:12.763Z,16.50
2019-05-13T15:19:17.140Z,16.60
2019-05-13T15:23:22.258Z,16.60
2019-05-13T15:27:26.807Z,16.60
2019-05-13T15:31:31.681Z,16.50
2019-05-13T15:35:36.377Z,16.50
2019-05-13T15:39:42.553Z,16.50
2019-05-13T15:43:47.363Z,16.50
2019-05-13T15:47:52.138Z,16.50
2019-05-13T15:51:56.672Z,16.40
2019-05-13T15:56:02.518Z,16.40
2019-05-13T16:00:08.247Z,16.30
2019-05-13T16:04:13.598Z,16.40
2019-05-13T16:08:18.378Z,16.30
2019-05-13T16:12:22.897Z,16.20
2019-05-13T16:16:27.879Z,16.10
2019-05-13T16:20:32.427Z,16.00
2019-05-13T16:26:07.196Z,15.70
2019-05-13T16:30:12.251Z,15.80
2019-05-13T16:34:16.821Z,15.70
2019-05-13T16:38:21.935Z,15.70
2019-05-13T16:42:26.672Z,15.60
2019-05-13T16:46:31.613Z,15.60
2019-05-13T16:50:36.399Z,15.50
2019-05-13T16:54:42.529Z,15.50
2019-05-13T16:58:47.307Z,15.40
2019-05-13T17:02:51.975Z,15.30
2019-05-13T17:06:56.604Z,15.30
2019-05-13T17:11:02.247Z,15.20
2019-05-13T17:15:07.711Z,15.10
2019-05-13T17:19:12.327Z,14.90
2019-05-13T17:23:16.910Z,14.90
2019-05-13T17:27:21.498Z,14.80
2019-05-13T17:31:26.068Z,14.80
2019-05-13T17:35:31.295Z,14.70
2019-05-13T17:39:35.972Z,14.90
2019-05-13T17:43:41.265Z,14.90
2019-05-13T17:47:45.961Z,15.00
2019-05-13T17:51:51.718Z,15.00
2019-05-13T17:55:56.432Z,15.00
2019-05-13T18:00:01.043Z,15.00
2019-05-13T18:04:05.616Z,15.00
2019-05-13T18:08:11.263Z,14.90
2019-05-13T18:12:16.080Z,14.70
2019-05-13T18:16:21.731Z,14.80
2019-05-13T18:20:26.524Z,14.70
2019-05-13T18:24:31.995Z,14.60
2019-05-13T18:28:36.815Z,14.50
2019-05-13T18:32:41.571Z,14.50
2019-05-13T18:36:46.112Z,14.40
2019-05-13T18:40:52.630Z,14.20
2019-05-13T18:44:56.933Z,14.10
2019-05-13T18:49:02.251Z,13.60
2019-05-13T18:53:07.022Z,13.40
2019-05-13T18:57:12.229Z,13.10
2019-05-13T19:01:17.056Z,13.00
2019-05-13T19:05:21.687Z,12.80
2019-05-13T19:09:26.264Z,12.60
2019-05-13T19:13:32.387Z,12.50
2019-05-13T19:17:37.243Z,12.30
2019-05-13T19:21:41.794Z,12.50
2019-05-13T19:25:46.396Z,12.20
2019-05-13T19:30:51.734Z,11.90
2019-05-13T19:34:56.486Z,11.80
2019-05-13T19:39:01.788Z,11.70
2019-05-13T19:43:06.455Z,11.50
2019-05-13T19:47:12.419Z,11.80
2019-05-13T19:51:17.171Z,11.90
2019-05-13T19:55:21.766Z,12.00
2019-05-13T19:59:26.358Z,11.90
2019-05-13T20:03:31.722Z,11.90
2019-05-13T20:07:36.605Z,11.90
2019-05-13T20:11:41.962Z,11.90
2019-05-13T20:15:46.685Z,11.90
2019-05-13T20:19:53.582Z,11.80
2019-05-13T20:23:57.477Z,11.80
2019-05-13T20:28:02.450Z,11.60
2019-05-13T20:32:07.117Z,11.50
2019-05-13T20:36:11.942Z,11.50
2019-05-13T20:40:16.716Z,11.40
2019-05-13T20:44:22.083Z,11.40
2019-05-13T20:48:26.752Z,11.30
2019-05-13T20:52:31.555Z,11.20
2019-05-13T20:56:36.340Z,11.20
2019-05-13T21:00:42.235Z,11.20
2019-05-13T21:04:47.046Z,11.10
2019-05-13T21:08:52.210Z,11.10
2019-05-13T21:12:56.977Z,11.00
2019-05-13T21:17:01.597Z,11.00
2019-05-13T21:21:06.137Z,10.90
2019-05-13T21:25:11.019Z,10.80
2019-05-13T21:29:15.573Z,10.80
2019-05-13T21:33:22.119Z,10.70
2019-05-13T21:37:26.423Z,10.70
2019-05-13T21:41:31.668Z,10.70
2019-05-13T21:45:36.262Z,10.60
2019-05-13T21:49:42.340Z,10.50
2019-05-13T21:53:47.121Z,10.50
2019-05-13T21:57:53.070Z,10.10
2019-05-13T22:01:57.842Z,10.20
2019-05-13T22:06:02.359Z,10.30
2019-05-13T22:10:07.336Z,10.30
2019-05-13T22:14:11.907Z,10.30
2019-05-13T22:18:16.500Z,10.30
2019-05-13T22:22:22.099Z,10.30
2019-05-13T22:26:26.714Z,10.30
2019-05-13T22:30:33.356Z,10.20
2019-05-13T22:34:37.536Z,10.20
2019-05-13T22:38:42.599Z,10.20
2019-05-13T22:42:47.440Z,10.10
2019-05-13T22:46:51.985Z,10.10
2019-05-13T22:50:56.895Z,10.00
2019-05-13T22:55:02.436Z,10.00
2019-05-13T22:59:07.156Z,9.90
2019-05-13T23:03:11.801Z,9.60
2019-05-13T23:07:16.341Z,9.40
2019-05-13T23:11:21.883Z,9.50
2019-05-13T23:18:23.660Z,9.50
2019-05-13T23:22:28.224Z,9.50
2019-05-13T23:26:32.853Z,9.50
2019-05-13T23:30:37.397Z,9.40
2019-05-13T23:34:42.381Z,9.40
2019-05-13T23:38:47.109Z,9.40
2019-05-13T23:42:51.917Z,9.30
2019-05-13T23:46:56.516Z,9.30
2019-05-13T23:51:01.420Z,9.20
2019-05-13T23:55:06.247Z,9.20
2019-05-13T23:59:11.387Z,9.10
